sensor_id;sensor_type;location;lat;lon;timestamp;P1;durP1;ratioP1;P2;durP2;ratioP2
9823;SDS011;4951;50.778;7.196;2022-09-03T00:01:53;2.40;;;1.17;;
9823;SDS011;4951;50.778;7.196;2022-09-03T00:04:31;1.73;;;1.40;;
9823;SDS011;4951;50.778;7.196;2022-09-03T00:07:11;1.20;;;1.10;;
9823;SDS011;4951;50.778;7.196;2022-09-03T00:09:46;1.67;;;1.57;;
9823;SDS011;4951;50.778;7.196;2022-09-03T00:12:18;1.40;;;1.30;;
9823;SDS011;4951;50.778;7.196;2022-09-03T00:14:59;1.87;;;1.47;;
9823;SDS011;4951;50.778;7.196;2022-09-03T00:17:33;2.83;;;1.40;;
9823;SDS011;4951;50.778;7.196;2022-09-03T00:20:06;1.37;;;1.27;;
9823;SDS011;4951;50.778;7.196;2022-09-03T00:22:38;3.90;;;1.40;;
9823;SDS011;4951;50.778;7.196;2022-09-03T00:25:11;4.00;;;1.30;;
9823;SDS011;4951;50.778;7.196;2022-09-03T00:27:43;1.70;;;1.37;;
9823;SDS011;4951;50.778;7.196;2022-09-03T00:30:18;2.20;;;1.47;;
9823;SDS011;4951;50.778;7.196;2022-09-03T00:32:49;1.40;;;1.30;;
9823;SDS011;4951;50.778;7.196;2022-09-03T00:35:22;2.53;;;1.23;;
9823;SDS011;4951;50.778;7.196;2022-09-03T00:37:56;1.57;;;1.40;;
9823;SDS011;4951;50.778;7.196;2022-09-03T00:40:40;1.23;;;1.13;;
9823;SDS011;4951;50.778;7.196;2022-09-03T00:43:22;1.30;;;1.20;;
9823;SDS011;4951;50.778;7.196;2022-09-03T00:46:10;1.30;;;1.20;;
9823;SDS011;4951;50.778;7.196;2022-09-03T00:48:56;3.53;;;1.40;;
9823;SDS011;4951;50.778;7.196;2022-09-03T00:51:38;1.70;;;1.50;;
9823;SDS011;4951;50.778;7.196;2022-09-03T00:54:15;1.50;;;1.40;;
9823;SDS011;4951;50.778;7.196;2022-09-03T00:57:09;1.50;;;1.30;;
9823;SDS011;4951;50.778;7.196;2022-09-03T01:00:03;2.37;;;1.33;;
9823;SDS011;4951;50.778;7.196;2022-09-03T01:02:45;1.60;;;1.30;;
9823;SDS011;4951;50.778;7.196;2022-09-03T01:05:40;1.70;;;1.30;;
9823;SDS011;4951;50.778;7.196;2022-09-03T01:08:15;1.33;;;1.03;;
9823;SDS011;4951;50.778;7.196;2022-09-03T01:11:10;1.47;;;1.37;;
9823;SDS011;4951;50.778;7.196;2022-09-03T01:13:49;2.40;;;1.40;;
9823;SDS011;4951;50.778;7.196;2022-09-03T01:16:27;1.87;;;1.13;;
9823;SDS011;4951;50.778;7.196;2022-09-03T01:19:10;1.30;;;1.20;;
9823;SDS011;4951;50.778;7.196;2022-09-03T01:22:02;1.40;;;1.30;;
9823;SDS011;4951;50.778;7.196;2022-09-03T01:24:51;1.40;;;1.30;;
9823;SDS011;4951;50.778;7.196;2022-09-03T01:27:39;1.40;;;1.30;;
9823;SDS011;4951;50.778;7.196;2022-09-03T01:30:14;1.73;;;1.30;;
9823;SDS011;4951;50.778;7.196;2022-09-03T01:32:45;2.07;;;1.10;;
9823;SDS011;4951;50.778;7.196;2022-09-03T01:35:26;2.17;;;1.30;;
9823;SDS011;4951;50.778;7.196;2022-09-03T01:38:06;1.50;;;1.30;;
9823;SDS011;4951;50.778;7.196;2022-09-03T01:40:41;1.40;;;1.30;;
9823;SDS011;4951;50.778;7.196;2022-09-03T01:43:25;1.63;;;1.47;;
9823;SDS011;4951;50.778;7.196;2022-09-03T01:46:09;2.60;;;1.50;;
9823;SDS011;4951;50.778;7.196;2022-09-03T01:48:47;2.03;;;1.30;;
9823;SDS011;4951;50.778;7.196;2022-09-03T01:51:34;1.60;;;1.50;;
9823;SDS011;4951;50.778;7.196;2022-09-03T01:54:12;1.40;;;1.30;;
9823;SDS011;4951;50.778;7.196;2022-09-03T01:57:27;3.57;;;1.70;;
9823;SDS011;4951;50.778;7.196;2022-09-03T02:00:48;1.47;;;1.20;;
9823;SDS011;4951;50.778;7.196;2022-09-03T02:03:22;2.57;;;1.10;;
9823;SDS011;4951;50.778;7.196;2022-09-03T02:05:52;1.37;;;1.27;;
9823;SDS011;4951;50.778;7.196;2022-09-03T02:08:27;4.40;;;1.23;;
9823;SDS011;4951;50.778;7.196;2022-09-03T02:10:58;2.60;;;1.20;;
9823;SDS011;4951;50.778;7.196;2022-09-03T02:13:27;5.13;;;1.50;;
9823;SDS011;4951;50.778;7.196;2022-09-03T02:16:02;1.40;;;1.30;;
9823;SDS011;4951;50.778;7.196;2022-09-03T02:18:42;3.87;;;1.33;;
9823;SDS011;4951;50.778;7.196;2022-09-03T02:21:15;2.40;;;1.30;;
9823;SDS011;4951;50.778;7.196;2022-09-03T02:23:45;1.37;;;1.20;;
9823;SDS011;4951;50.778;7.196;2022-09-03T02:26:15;1.80;;;1.20;;
9823;SDS011;4951;50.778;7.196;2022-09-03T02:28:47;1.50;;;1.10;;
9823;SDS011;4951;50.778;7.196;2022-09-03T02:31:33;1.30;;;1.20;;
9823;SDS011;4951;50.778;7.196;2022-09-03T02:34:03;1.33;;;1.23;;
9823;SDS011;4951;50.778;7.196;2022-09-03T02:36:31;1.40;;;1.30;;
9823;SDS011;4951;50.778;7.196;2022-09-03T02:39:05;3.07;;;1.40;;
9823;SDS011;4951;50.778;7.196;2022-09-03T02:41:33;1.63;;;1.33;;
9823;SDS011;4951;50.778;7.196;2022-09-03T02:44:14;1.40;;;1.30;;
9823;SDS011;4951;50.778;7.196;2022-09-03T02:46:57;1.97;;;1.23;;
9823;SDS011;4951;50.778;7.196;2022-09-03T02:49:27;2.60;;;1.27;;
9823;SDS011;4951;50.778;7.196;2022-09-03T02:52:01;1.53;;;1.30;;
9823;SDS011;4951;50.778;7.196;2022-09-03T02:54:33;1.17;;;1.07;;
9823;SDS011;4951;50.778;7.196;2022-09-03T02:57:05;1.30;;;1.20;;
9823;SDS011;4951;50.778;7.196;2022-09-03T03:00:06;1.20;;;1.10;;
9823;SDS011;4951;50.778;7.196;2022-09-03T03:02:35;3.20;;;1.33;;
9823;SDS011;4951;50.778;7.196;2022-09-03T03:05:20;3.13;;;1.50;;
9823;SDS011;4951;50.778;7.196;2022-09-03T03:08:18;1.70;;;1.40;;
9823;SDS011;4951;50.778;7.196;2022-09-03T03:10:50;2.10;;;1.50;;
9823;SDS011;4951;50.778;7.196;2022-09-03T03:13:23;1.20;;;1.10;;
9823;SDS011;4951;50.778;7.196;2022-09-03T03:15:50;2.40;;;1.20;;
9823;SDS011;4951;50.778;7.196;2022-09-03T03:18:21;1.50;;;1.37;;
9823;SDS011;4951;50.778;7.196;2022-09-03T03:20:51;2.40;;;1.40;;
9823;SDS011;4951;50.778;7.196;2022-09-03T03:23:19;2.00;;;1.20;;
9823;SDS011;4951;50.778;7.196;2022-09-03T03:26:01;1.63;;;1.40;;
9823;SDS011;4951;50.778;7.196;2022-09-03T03:28:31;1.67;;;1.40;;
9823;SDS011;4951;50.778;7.196;2022-09-03T03:31:05;2.37;;;1.20;;
9823;SDS011;4951;50.778;7.196;2022-09-03T03:33:33;1.60;;;1.40;;
9823;SDS011;4951;50.778;7.196;2022-09-03T03:36:07;1.63;;;1.30;;
9823;SDS011;4951;50.778;7.196;2022-09-03T03:38:36;1.97;;;1.23;;
9823;SDS011;4951;50.778;7.196;2022-09-03T03:41:08;1.40;;;1.23;;
9823;SDS011;4951;50.778;7.196;2022-09-03T03:43:38;1.30;;;1.20;;
9823;SDS011;4951;50.778;7.196;2022-09-03T03:46:06;1.43;;;1.33;;
9823;SDS011;4951;50.778;7.196;2022-09-03T03:48:35;2.50;;;1.40;;
9823;SDS011;4951;50.778;7.196;2022-09-03T03:51:09;2.20;;;1.20;;
9823;SDS011;4951;50.778;7.196;2022-09-03T03:53:42;2.07;;;1.20;;
9823;SDS011;4951;50.778;7.196;2022-09-03T03:56:11;1.87;;;1.20;;
9823;SDS011;4951;50.778;7.196;2022-09-03T03:58:43;1.40;;;1.30;;
9823;SDS011;4951;50.778;7.196;2022-09-03T04:01:29;1.30;;;1.20;;
9823;SDS011;4951;50.778;7.196;2022-09-03T04:03:57;2.00;;;1.40;;
9823;SDS011;4951;50.778;7.196;2022-09-03T04:06:34;1.47;;;1.10;;
9823;SDS011;4951;50.778;7.196;2022-09-03T04:09:02;1.40;;;1.27;;
9823;SDS011;4951;50.778;7.196;2022-09-03T04:11:33;1.83;;;1.23;;
9823;SDS011;4951;50.778;7.196;2022-09-03T04:14:01;2.70;;;1.37;;
9823;SDS011;4951;50.778;7.196;2022-09-03T04:16:32;1.30;;;1.20;;
9823;SDS011;4951;50.778;7.196;2022-09-03T04:19:00;1.40;;;1.30;;
9823;SDS011;4951;50.778;7.196;2022-09-03T04:21:28;1.40;;;1.30;;
9823;SDS011;4951;50.778;7.196;2022-09-03T04:24:02;1.73;;;1.23;;
9823;SDS011;4951;50.778;7.196;2022-09-03T04:26:31;2.33;;;1.40;;
9823;SDS011;4951;50.778;7.196;2022-09-03T04:29:04;1.70;;;1.33;;
9823;SDS011;4951;50.778;7.196;2022-09-03T04:31:38;1.37;;;1.27;;
9823;SDS011;4951;50.778;7.196;2022-09-03T04:34:35;1.40;;;1.30;;
9823;SDS011;4951;50.778;7.196;2022-09-03T04:37:02;2.13;;;1.33;;
9823;SDS011;4951;50.778;7.196;2022-09-03T04:42:24;1.33;;;1.23;;
9823;SDS011;4951;50.778;7.196;2022-09-03T04:45:09;1.57;;;1.17;;
9823;SDS011;4951;50.778;7.196;2022-09-03T04:47:43;2.13;;;1.30;;
9823;SDS011;4951;50.778;7.196;2022-09-03T04:50:12;1.37;;;1.20;;
9823;SDS011;4951;50.778;7.196;2022-09-03T04:52:40;2.70;;;1.50;;
9823;SDS011;4951;50.778;7.196;2022-09-03T04:55:10;1.30;;;1.20;;
9823;SDS011;4951;50.778;7.196;2022-09-03T04:57:45;1.90;;;1.10;;
9823;SDS011;4951;50.778;7.196;2022-09-03T05:00:18;1.80;;;1.10;;
9823;SDS011;4951;50.778;7.196;2022-09-03T05:02:47;1.87;;;1.40;;
9823;SDS011;4951;50.778;7.196;2022-09-03T05:05:19;3.37;;;1.40;;
9823;SDS011;4951;50.778;7.196;2022-09-03T05:07:56;1.30;;;1.20;;
9823;SDS011;4951;50.778;7.196;2022-09-03T05:10:28;1.30;;;1.20;;
9823;SDS011;4951;50.778;7.196;2022-09-03T05:12:56;6.13;;;2.03;;
9823;SDS011;4951;50.778;7.196;2022-09-03T05:15:25;1.43;;;1.23;;
9823;SDS011;4951;50.778;7.196;2022-09-03T05:17:58;3.33;;;1.20;;
9823;SDS011;4951;50.778;7.196;2022-09-03T05:20:39;3.13;;;1.50;;
9823;SDS011;4951;50.778;7.196;2022-09-03T05:23:07;1.40;;;1.23;;
9823;SDS011;4951;50.778;7.196;2022-09-03T05:25:42;1.30;;;1.20;;
9823;SDS011;4951;50.778;7.196;2022-09-03T05:28:23;2.00;;;1.30;;
9823;SDS011;4951;50.778;7.196;2022-09-03T05:31:03;1.90;;;1.30;;
9823;SDS011;4951;50.778;7.196;2022-09-03T05:33:34;1.90;;;1.30;;
9823;SDS011;4951;50.778;7.196;2022-09-03T05:36:05;2.40;;;1.30;;
9823;SDS011;4951;50.778;7.196;2022-09-03T05:38:39;1.87;;;1.40;;
9823;SDS011;4951;50.778;7.196;2022-09-03T05:41:09;1.40;;;1.20;;
9823;SDS011;4951;50.778;7.196;2022-09-03T05:43:39;1.40;;;1.30;;
9823;SDS011;4951;50.778;7.196;2022-09-03T05:46:08;3.57;;;1.20;;
9823;SDS011;4951;50.778;7.196;2022-09-03T05:48:37;2.40;;;1.30;;
9823;SDS011;4951;50.778;7.196;2022-09-03T05:51:06;1.40;;;1.30;;
9823;SDS011;4951;50.778;7.196;2022-09-03T05:53:41;1.20;;;1.10;;
9823;SDS011;4951;50.778;7.196;2022-09-03T05:56:11;3.70;;;1.40;;
9823;SDS011;4951;50.778;7.196;2022-09-03T05:58:44;1.93;;;1.50;;
9823;SDS011;4951;50.778;7.196;2022-09-03T06:01:17;4.13;;;1.30;;
9823;SDS011;4951;50.778;7.196;2022-09-03T06:04:03;1.33;;;1.23;;
9823;SDS011;4951;50.778;7.196;2022-09-03T06:06:45;1.80;;;1.37;;
9823;SDS011;4951;50.778;7.196;2022-09-03T06:09:42;1.70;;;1.20;;
9823;SDS011;4951;50.778;7.196;2022-09-03T06:12:12;1.53;;;1.23;;
9823;SDS011;4951;50.778;7.196;2022-09-03T06:14:42;1.33;;;1.10;;
9823;SDS011;4951;50.778;7.196;2022-09-03T06:17:37;3.07;;;1.40;;
9823;SDS011;4951;50.778;7.196;2022-09-03T06:20:22;2.90;;;1.30;;
9823;SDS011;4951;50.778;7.196;2022-09-03T06:23:09;1.97;;;1.20;;
9823;SDS011;4951;50.778;7.196;2022-09-03T06:25:45;1.47;;;1.37;;
9823;SDS011;4951;50.778;7.196;2022-09-03T06:29:05;1.50;;;1.30;;
9823;SDS011;4951;50.778;7.196;2022-09-03T06:31:37;2.43;;;1.33;;
9823;SDS011;4951;50.778;7.196;2022-09-03T06:34:07;2.23;;;1.60;;
9823;SDS011;4951;50.778;7.196;2022-09-03T06:36:37;4.17;;;1.70;;
9823;SDS011;4951;50.778;7.196;2022-09-03T06:39:19;2.07;;;1.33;;
9823;SDS011;4951;50.778;7.196;2022-09-03T06:41:49;1.40;;;1.30;;
9823;SDS011;4951;50.778;7.196;2022-09-03T06:47:30;2.87;;;1.20;;
9823;SDS011;4951;50.778;7.196;2022-09-03T06:50:08;2.57;;;1.50;;
9823;SDS011;4951;50.778;7.196;2022-09-03T06:52:41;3.90;;;1.40;;
9823;SDS011;4951;50.778;7.196;2022-09-03T06:55:08;1.83;;;1.20;;
9823;SDS011;4951;50.778;7.196;2022-09-03T06:57:37;1.27;;;1.17;;
9823;SDS011;4951;50.778;7.196;2022-09-03T07:00:22;1.47;;;1.30;;
9823;SDS011;4951;50.778;7.196;2022-09-03T07:02:54;1.40;;;1.20;;
9823;SDS011;4951;50.778;7.196;2022-09-03T07:05:26;1.87;;;1.30;;
9823;SDS011;4951;50.778;7.196;2022-09-03T07:07:55;2.70;;;1.50;;
9823;SDS011;4951;50.778;7.196;2022-09-03T07:10:26;5.13;;;1.23;;
9823;SDS011;4951;50.778;7.196;2022-09-03T07:13:08;1.33;;;1.20;;
9823;SDS011;4951;50.778;7.196;2022-09-03T07:15:37;2.70;;;1.50;;
9823;SDS011;4951;50.778;7.196;2022-09-03T07:18:04;4.50;;;1.33;;
9823;SDS011;4951;50.778;7.196;2022-09-03T07:20:33;2.37;;;1.20;;
9823;SDS011;4951;50.778;7.196;2022-09-03T07:23:03;2.00;;;1.40;;
9823;SDS011;4951;50.778;7.196;2022-09-03T07:25:35;1.30;;;1.20;;
9823;SDS011;4951;50.778;7.196;2022-09-03T07:28:19;1.93;;;1.27;;
9823;SDS011;4951;50.778;7.196;2022-09-03T07:30:59;2.80;;;1.27;;
9823;SDS011;4951;50.778;7.196;2022-09-03T07:33:37;1.93;;;1.50;;
9823;SDS011;4951;50.778;7.196;2022-09-03T07:36:07;1.50;;;1.40;;
9823;SDS011;4951;50.778;7.196;2022-09-03T07:38:46;1.73;;;1.20;;
9823;SDS011;4951;50.778;7.196;2022-09-03T07:41:16;1.57;;;1.37;;
9823;SDS011;4951;50.778;7.196;2022-09-03T07:43:45;1.60;;;1.50;;
9823;SDS011;4951;50.778;7.196;2022-09-03T07:49:28;1.70;;;1.30;;
9823;SDS011;4951;50.778;7.196;2022-09-03T07:52:05;1.30;;;1.20;;
9823;SDS011;4951;50.778;7.196;2022-09-03T07:57:30;1.50;;;1.40;;
9823;SDS011;4951;50.778;7.196;2022-09-03T07:59:57;2.80;;;1.33;;
9823;SDS011;4951;50.778;7.196;2022-09-03T08:02:28;2.83;;;1.53;;
9823;SDS011;4951;50.778;7.196;2022-09-03T08:05:10;2.77;;;1.67;;
9823;SDS011;4951;50.778;7.196;2022-09-03T08:07:45;1.93;;;1.60;;
9823;SDS011;4951;50.778;7.196;2022-09-03T08:10:34;3.57;;;2.00;;
9823;SDS011;4951;50.778;7.196;2022-09-03T08:17:14;2.83;;;1.70;;
9823;SDS011;4951;50.778;7.196;2022-09-03T08:20:18;2.23;;;2.03;;
9823;SDS011;4951;50.778;7.196;2022-09-03T08:22:50;2.13;;;1.93;;
9823;SDS011;4951;50.778;7.196;2022-09-03T08:25:20;2.57;;;1.70;;
9823;SDS011;4951;50.778;7.196;2022-09-03T08:27:48;3.03;;;2.03;;
9823;SDS011;4951;50.778;7.196;2022-09-03T08:30:15;4.53;;;1.70;;
9823;SDS011;4951;50.778;7.196;2022-09-03T08:32:49;2.30;;;1.90;;
9823;SDS011;4951;50.778;7.196;2022-09-03T08:35:39;4.23;;;1.83;;
9823;SDS011;4951;50.778;7.196;2022-09-03T08:38:15;1.90;;;1.70;;
9823;SDS011;4951;50.778;7.196;2022-09-03T08:40:53;6.60;;;1.83;;
9823;SDS011;4951;50.778;7.196;2022-09-03T08:43:49;6.03;;;1.90;;
9823;SDS011;4951;50.778;7.196;2022-09-03T08:46:33;1.87;;;1.70;;
9823;SDS011;4951;50.778;7.196;2022-09-03T08:49:30;1.90;;;1.80;;
9823;SDS011;4951;50.778;7.196;2022-09-03T08:52:04;2.73;;;1.73;;
9823;SDS011;4951;50.778;7.196;2022-09-03T08:54:34;2.40;;;1.70;;
9823;SDS011;4951;50.778;7.196;2022-09-03T08:57:03;2.63;;;1.83;;
9823;SDS011;4951;50.778;7.196;2022-09-03T08:59:31;2.97;;;1.83;;
9823;SDS011;4951;50.778;7.196;2022-09-03T09:02:04;2.93;;;1.60;;
9823;SDS011;4951;50.778;7.196;2022-09-03T09:05:22;4.97;;;1.90;;
9823;SDS011;4951;50.778;7.196;2022-09-03T09:08:54;3.80;;;1.67;;
9823;SDS011;4951;50.778;7.196;2022-09-03T09:11:38;4.03;;;1.50;;
9823;SDS011;4951;50.778;7.196;2022-09-03T09:15:38;3.47;;;2.27;;
9823;SDS011;4951;50.778;7.196;2022-09-03T09:18:27;2.70;;;1.60;;
9823;SDS011;4951;50.778;7.196;2022-09-03T09:21:48;1.50;;;1.40;;
9823;SDS011;4951;50.778;7.196;2022-09-03T09:24:22;1.80;;;1.67;;
9823;SDS011;4951;50.778;7.196;2022-09-03T09:27:12;1.70;;;1.57;;
9823;SDS011;4951;50.778;7.196;2022-09-03T09:29:45;1.50;;;1.40;;
9823;SDS011;4951;50.778;7.196;2022-09-03T09:32:21;3.93;;;1.57;;
9823;SDS011;4951;50.778;7.196;2022-09-03T09:34:51;3.73;;;1.53;;
9823;SDS011;4951;50.778;7.196;2022-09-03T09:37:45;3.13;;;1.50;;
9823;SDS011;4951;50.778;7.196;2022-09-03T09:40:40;3.53;;;1.70;;
9823;SDS011;4951;50.778;7.196;2022-09-03T09:43:58;2.13;;;1.57;;
9823;SDS011;4951;50.778;7.196;2022-09-03T09:46:32;1.80;;;1.40;;
9823;SDS011;4951;50.778;7.196;2022-09-03T09:49:02;3.07;;;1.70;;
9823;SDS011;4951;50.778;7.196;2022-09-03T09:52:02;1.90;;;1.33;;
9823;SDS011;4951;50.778;7.196;2022-09-03T09:54:38;3.60;;;1.60;;
9823;SDS011;4951;50.778;7.196;2022-09-03T09:57:13;3.13;;;1.80;;
9823;SDS011;4951;50.778;7.196;2022-09-03T09:59:45;3.40;;;1.50;;
9823;SDS011;4951;50.778;7.196;2022-09-03T10:02:14;3.80;;;1.70;;
9823;SDS011;4951;50.778;7.196;2022-09-03T10:05:13;3.08;;;1.73;;
9823;SDS011;4951;50.778;7.196;2022-09-03T10:07:53;1.70;;;1.40;;
9823;SDS011;4951;50.778;7.196;2022-09-03T10:10:43;1.47;;;1.27;;
9823;SDS011;4951;50.778;7.196;2022-09-03T10:13:25;2.42;;;1.50;;
9823;SDS011;4951;50.778;7.196;2022-09-03T10:16:14;1.50;;;1.40;;
9823;SDS011;4951;50.778;7.196;2022-09-03T10:19:03;1.70;;;1.60;;
9823;SDS011;4951;50.778;7.196;2022-09-03T10:21:40;3.28;;;1.45;;
9823;SDS011;4951;50.778;7.196;2022-09-03T10:24:25;3.45;;;1.60;;
9823;SDS011;4951;50.778;7.196;2022-09-03T10:27:04;1.55;;;1.42;;
9823;SDS011;4951;50.778;7.196;2022-09-03T10:29:37;1.88;;;1.60;;
9823;SDS011;4951;50.778;7.196;2022-09-03T10:32:10;3.50;;;2.15;;
9823;SDS011;4951;50.778;7.196;2022-09-03T10:34:58;4.57;;;1.85;;
9823;SDS011;4951;50.778;7.196;2022-09-03T10:37:36;2.22;;;1.92;;
9823;SDS011;4951;50.778;7.196;2022-09-03T10:40:24;2.75;;;1.65;;
9823;SDS011;4951;50.778;7.196;2022-09-03T10:43:08;4.40;;;1.80;;
9823;SDS011;4951;50.778;7.196;2022-09-03T10:46:02;2.42;;;1.77;;
9823;SDS011;4951;50.778;7.196;2022-09-03T10:51:35;2.28;;;1.80;;
9823;SDS011;4951;50.778;7.196;2022-09-03T10:54:12;3.80;;;1.70;;
9823;SDS011;4951;50.778;7.196;2022-09-03T10:56:59;2.67;;;1.80;;
9823;SDS011;4951;50.778;7.196;2022-09-03T10:59:35;2.60;;;1.90;;
9823;SDS011;4951;50.778;7.196;2022-09-03T11:05:52;2.00;;;1.80;;
9823;SDS011;4951;50.778;7.196;2022-09-03T11:08:29;2.05;;;1.83;;
9823;SDS011;4951;50.778;7.196;2022-09-03T11:11:03;4.57;;;2.20;;
9823;SDS011;4951;50.778;7.196;2022-09-03T11:13:43;2.50;;;2.17;;
9823;SDS011;4951;50.778;7.196;2022-09-03T11:16:15;2.30;;;2.00;;
9823;SDS011;4951;50.778;7.196;2022-09-03T11:18:48;3.17;;;2.30;;
9823;SDS011;4951;50.778;7.196;2022-09-03T11:21:26;2.88;;;2.17;;
9823;SDS011;4951;50.778;7.196;2022-09-03T11:24:11;6.80;;;2.47;;
9823;SDS011;4951;50.778;7.196;2022-09-03T11:26:40;2.35;;;2.15;;
9823;SDS011;4951;50.778;7.196;2022-09-03T11:29:23;2.10;;;1.90;;
9823;SDS011;4951;50.778;7.196;2022-09-03T11:32:03;3.08;;;2.20;;
9823;SDS011;4951;50.778;7.196;2022-09-03T11:34:51;2.00;;;1.90;;
9823;SDS011;4951;50.778;7.196;2022-09-03T11:37:32;2.25;;;2.05;;
9823;SDS011;4951;50.778;7.196;2022-09-03T11:40:31;4.13;;;1.83;;
9823;SDS011;4951;50.778;7.196;2022-09-03T11:43:04;2.30;;;2.10;;
9823;SDS011;4951;50.778;7.196;2022-09-03T11:45:37;3.17;;;2.70;;
9823;SDS011;4951;50.778;7.196;2022-09-03T11:48:18;6.95;;;3.13;;
9823;SDS011;4951;50.778;7.196;2022-09-03T11:51:00;4.65;;;2.63;;
9823;SDS011;4951;50.778;7.196;2022-09-03T11:53:36;4.10;;;2.58;;
9823;SDS011;4951;50.778;7.196;2022-09-03T11:56:16;2.47;;;2.03;;
9823;SDS011;4951;50.778;7.196;2022-09-03T11:58:58;2.25;;;2.13;;
9823;SDS011;4951;50.778;7.196;2022-09-03T12:01:56;4.32;;;2.20;;
9823;SDS011;4951;50.778;7.196;2022-09-03T12:04:29;2.10;;;1.90;;
9823;SDS011;4951;50.778;7.196;2022-09-03T12:07:24;2.15;;;1.90;;
9823;SDS011;4951;50.778;7.196;2022-09-03T12:13:01;2.10;;;1.90;;
9823;SDS011;4951;50.778;7.196;2022-09-03T12:15:57;2.55;;;1.90;;
9823;SDS011;4951;50.778;7.196;2022-09-03T12:19:06;2.25;;;2.05;;
9823;SDS011;4951;50.778;7.196;2022-09-03T12:21:48;2.42;;;1.95;;
9823;SDS011;4951;50.778;7.196;2022-09-03T12:24:17;2.20;;;2.00;;
9823;SDS011;4951;50.778;7.196;2022-09-03T12:26:55;2.08;;;1.88;;
9823;SDS011;4951;50.778;7.196;2022-09-03T12:29:32;4.45;;;2.20;;
9823;SDS011;4951;50.778;7.196;2022-09-03T12:32:07;3.47;;;1.88;;
9823;SDS011;4951;50.778;7.196;2022-09-03T12:34:38;2.78;;;2.10;;
9823;SDS011;4951;50.778;7.196;2022-09-03T12:37:13;4.45;;;2.55;;
9823;SDS011;4951;50.778;7.196;2022-09-03T12:39:49;2.40;;;2.20;;
9823;SDS011;4951;50.778;7.196;2022-09-03T12:42:23;2.72;;;2.20;;
9823;SDS011;4951;50.778;7.196;2022-09-03T12:45:03;2.30;;;2.10;;
9823;SDS011;4951;50.778;7.196;2022-09-03T12:47:36;2.47;;;2.15;;
9823;SDS011;4951;50.778;7.196;2022-09-03T12:50:05;3.50;;;2.72;;
9823;SDS011;4951;50.778;7.196;2022-09-03T12:52:37;3.38;;;2.38;;
9823;SDS011;4951;50.778;7.196;2022-09-03T12:55:28;2.30;;;2.00;;
9823;SDS011;4951;50.778;7.196;2022-09-03T12:58:24;2.20;;;2.00;;
9823;SDS011;4951;50.778;7.196;2022-09-03T13:01:22;1.80;;;1.70;;
9823;SDS011;4951;50.778;7.196;2022-09-03T13:03:58;3.92;;;1.90;;
9823;SDS011;4951;50.778;7.196;2022-09-03T13:06:59;3.63;;;2.10;;
9823;SDS011;4951;50.778;7.196;2022-09-03T13:09:51;2.38;;;2.03;;
9823;SDS011;4951;50.778;7.196;2022-09-03T13:19:11;2.47;;;2.10;;
9823;SDS011;4951;50.778;7.196;2022-09-03T13:21:49;2.85;;;1.90;;
9823;SDS011;4951;50.778;7.196;2022-09-03T13:24:43;2.53;;;1.90;;
9823;SDS011;4951;50.778;7.196;2022-09-03T13:30:49;3.85;;;2.15;;
9823;SDS011;4951;50.778;7.196;2022-09-03T13:33:45;1.70;;;1.60;;
9823;SDS011;4951;50.778;7.196;2022-09-03T13:36:27;8.80;;;2.05;;
9823;SDS011;4951;50.778;7.196;2022-09-03T13:39:21;1.70;;;1.60;;
9823;SDS011;4951;50.778;7.196;2022-09-03T13:42:08;1.80;;;1.70;;
9823;SDS011;4951;50.778;7.196;2022-09-03T13:44:54;2.92;;;1.83;;
9823;SDS011;4951;50.778;7.196;2022-09-03T13:51:00;3.35;;;2.10;;
9823;SDS011;4951;50.778;7.196;2022-09-03T13:53:49;2.13;;;1.92;;
9823;SDS011;4951;50.778;7.196;2022-09-03T13:56:41;2.03;;;1.92;;
9823;SDS011;4951;50.778;7.196;2022-09-03T13:59:17;4.47;;;1.88;;
9823;SDS011;4951;50.778;7.196;2022-09-03T14:02:17;2.05;;;1.67;;
9823;SDS011;4951;50.778;7.196;2022-09-03T14:04:57;2.20;;;1.90;;
9823;SDS011;4951;50.778;7.196;2022-09-03T14:07:45;2.00;;;1.80;;
9823;SDS011;4951;50.778;7.196;2022-09-03T14:10:21;3.15;;;1.88;;
9823;SDS011;4951;50.778;7.196;2022-09-03T14:13:01;2.83;;;1.80;;
9823;SDS011;4951;50.778;7.196;2022-09-03T14:15:40;3.55;;;1.75;;
9823;SDS011;4951;50.778;7.196;2022-09-03T14:18:13;2.00;;;1.80;;
9823;SDS011;4951;50.778;7.196;2022-09-03T14:20:54;2.10;;;1.90;;
9823;SDS011;4951;50.778;7.196;2022-09-03T14:23:31;2.70;;;1.85;;
9823;SDS011;4951;50.778;7.196;2022-09-03T14:26:21;2.65;;;1.88;;
9823;SDS011;4951;50.778;7.196;2022-09-03T14:29:02;1.92;;;1.70;;
9823;SDS011;4951;50.778;7.196;2022-09-03T14:31:46;6.03;;;1.70;;
9823;SDS011;4951;50.778;7.196;2022-09-03T14:34:33;1.92;;;1.63;;
9823;SDS011;4951;50.778;7.196;2022-09-03T14:37:13;2.08;;;1.67;;
9823;SDS011;4951;50.778;7.196;2022-09-03T14:39:53;2.25;;;1.60;;
9823;SDS011;4951;50.778;7.196;2022-09-03T14:48:41;1.50;;;1.40;;
9823;SDS011;4951;50.778;7.196;2022-09-03T14:51:48;2.22;;;1.90;;
9823;SDS011;4951;50.778;7.196;2022-09-03T15:00:46;1.80;;;1.60;;
9823;SDS011;4951;50.778;7.196;2022-09-03T15:06:40;1.60;;;1.40;;
9823;SDS011;4951;50.778;7.196;2022-09-03T15:09:36;1.55;;;1.45;;
9823;SDS011;4951;50.778;7.196;2022-09-03T15:12:27;1.63;;;1.33;;
9823;SDS011;4951;50.778;7.196;2022-09-03T15:15:09;1.50;;;1.40;;
9823;SDS011;4951;50.778;7.196;2022-09-03T15:18:08;1.65;;;1.55;;
9823;SDS011;4951;50.778;7.196;2022-09-03T15:21:01;1.60;;;1.50;;
9823;SDS011;4951;50.778;7.196;2022-09-03T15:23:46;3.05;;;1.63;;
9823;SDS011;4951;50.778;7.196;2022-09-03T15:29:44;1.77;;;1.50;;
9823;SDS011;4951;50.778;7.196;2022-09-03T15:32:47;1.65;;;1.55;;
9823;SDS011;4951;50.778;7.196;2022-09-03T15:38:43;2.80;;;1.63;;
9823;SDS011;4951;50.778;7.196;2022-09-03T15:41:25;4.05;;;1.52;;
9823;SDS011;4951;50.778;7.196;2022-09-03T15:44:16;1.98;;;1.67;;
9823;SDS011;4951;50.778;7.196;2022-09-03T15:46:52;1.92;;;1.42;;
9823;SDS011;4951;50.778;7.196;2022-09-03T15:49:35;1.70;;;1.60;;
9823;SDS011;4951;50.778;7.196;2022-09-03T15:52:25;1.60;;;1.50;;
9823;SDS011;4951;50.778;7.196;2022-09-03T15:55:05;1.70;;;1.60;;
9823;SDS011;4951;50.778;7.196;2022-09-03T15:57:52;2.03;;;1.83;;
9823;SDS011;4951;50.778;7.196;2022-09-03T16:00:39;2.20;;;2.00;;
9823;SDS011;4951;50.778;7.196;2022-09-03T16:03:33;3.55;;;2.10;;
9823;SDS011;4951;50.778;7.196;2022-09-03T16:06:19;2.65;;;2.13;;
9823;SDS011;4951;50.778;7.196;2022-09-03T16:08:54;3.95;;;2.08;;
9823;SDS011;4951;50.778;7.196;2022-09-03T16:11:35;4.50;;;2.40;;
9823;SDS011;4951;50.778;7.196;2022-09-03T16:14:13;2.83;;;2.10;;
9823;SDS011;4951;50.778;7.196;2022-09-03T16:16:47;2.45;;;2.25;;
9823;SDS011;4951;50.778;7.196;2022-09-03T16:19:33;3.50;;;2.28;;
9823;SDS011;4951;50.778;7.196;2022-09-03T16:22:37;3.13;;;2.00;;
9823;SDS011;4951;50.778;7.196;2022-09-03T16:25:11;2.60;;;2.10;;
9823;SDS011;4951;50.778;7.196;2022-09-03T16:27:48;5.03;;;2.15;;
9823;SDS011;4951;50.778;7.196;2022-09-03T16:30:27;2.08;;;1.88;;
9823;SDS011;4951;50.778;7.196;2022-09-03T16:33:15;2.40;;;1.80;;
9823;SDS011;4951;50.778;7.196;2022-09-03T16:35:52;3.78;;;1.85;;
9823;SDS011;4951;50.778;7.196;2022-09-03T16:38:37;3.15;;;1.90;;
9823;SDS011;4951;50.778;7.196;2022-09-03T16:41:12;2.50;;;1.85;;
9823;SDS011;4951;50.778;7.196;2022-09-03T16:44:01;2.00;;;1.60;;
9823;SDS011;4951;50.778;7.196;2022-09-03T16:46:40;2.20;;;1.80;;
9823;SDS011;4951;50.778;7.196;2022-09-03T16:52:39;2.28;;;1.58;;
9823;SDS011;4951;50.778;7.196;2022-09-03T16:55:23;1.50;;;1.40;;
9823;SDS011;4951;50.778;7.196;2022-09-03T16:58:07;1.58;;;1.48;;
9823;SDS011;4951;50.778;7.196;2022-09-03T17:00:50;1.92;;;1.60;;
9823;SDS011;4951;50.778;7.196;2022-09-03T17:03:56;1.50;;;1.40;;
9823;SDS011;4951;50.778;7.196;2022-09-03T17:07:04;2.35;;;1.27;;
9823;SDS011;4951;50.778;7.196;2022-09-03T17:09:47;1.55;;;1.33;;
9823;SDS011;4951;50.778;7.196;2022-09-03T17:12:35;1.70;;;1.20;;
9823;SDS011;4951;50.778;7.196;2022-09-03T17:15:21;1.90;;;1.50;;
9823;SDS011;4951;50.778;7.196;2022-09-03T17:18:14;2.05;;;1.27;;
9823;SDS011;4951;50.778;7.196;2022-09-03T17:21:04;2.08;;;1.60;;
9823;SDS011;4951;50.778;7.196;2022-09-03T17:24:08;1.50;;;1.40;;
9823;SDS011;4951;50.778;7.196;2022-09-03T17:26:55;1.75;;;1.65;;
9823;SDS011;4951;50.778;7.196;2022-09-03T17:29:45;3.40;;;1.60;;
9823;SDS011;4951;50.778;7.196;2022-09-03T17:32:33;1.70;;;1.60;;
9823;SDS011;4951;50.778;7.196;2022-09-03T17:35:33;1.77;;;1.67;;
9823;SDS011;4951;50.778;7.196;2022-09-03T17:38:16;1.83;;;1.73;;
9823;SDS011;4951;50.778;7.196;2022-09-03T17:41:02;2.53;;;1.92;;